createdAt,value
2023-09-27T00:02:39.228Z,16.35
2023-09-27T00:07:26.659Z,16.21
2023-09-27T00:12:16.906Z,16.28
2023-09-27T00:17:06.434Z,16.26
2023-09-27T00:21:53.698Z,15.85
2023-09-27T00:26:40.962Z,16.07
2023-09-27T00:31:30.783Z,16.14
2023-09-27T00:36:18.198Z,15.84
2023-09-27T00:41:05.654Z,15.96
2023-09-27T00:45:54.903Z,16.02
2023-09-27T00:50:45.318Z,15.98
2023-09-27T00:55:32.584Z,15.94
2023-09-27T01:00:20.917Z,15.82
2023-09-27T01:05:08.903Z,15.70
2023-09-27T01:09:58.795Z,15.81
2023-09-27T01:14:46.594Z,15.78
2023-09-27T01:19:34.705Z,15.69
2023-09-27T01:24:24.514Z,15.63
2023-09-27T01:29:11.809Z,15.66
2023-09-27T01:34:00.694Z,15.41
2023-09-27T01:38:47.834Z,15.23
2023-09-27T01:43:37.639Z,15.32
2023-09-27T01:48:24.833Z,15.49
2023-09-27T01:53:12.222Z,15.30
2023-09-27T01:58:00.420Z,15.35
2023-09-27T02:02:52.805Z,15.27
2023-09-27T02:07:40.662Z,15.20
2023-09-27T02:12:27.792Z,15.32
2023-09-27T02:17:15.102Z,15.02
2023-09-27T02:22:04.937Z,15.07
2023-09-27T02:26:52.260Z,14.96
2023-09-27T02:31:39.642Z,14.98
2023-09-27T02:36:27.361Z,14.79
2023-09-27T02:41:17.171Z,15.06
2023-09-27T02:46:04.483Z,15.11
2023-09-27T02:50:52.378Z,14.67
2023-09-27T02:55:39.590Z,14.84
2023-09-27T03:00:33.010Z,14.91
2023-09-27T03:05:23.319Z,14.95
2023-09-27T03:10:10.996Z,14.81
2023-09-27T03:14:58.638Z,14.93
2023-09-27T03:19:50.122Z,14.94
2023-09-27T03:24:38.990Z,14.64
2023-09-27T03:29:28.878Z,14.90
2023-09-27T03:34:16.338Z,14.87
2023-09-27T03:39:08.062Z,14.60
2023-09-27T03:43:55.520Z,14.65
2023-09-27T03:48:42.818Z,14.78
2023-09-27T03:53:30.267Z,14.33
2023-09-27T03:58:20.133Z,14.62
2023-09-27T04:03:07.593Z,14.63
2023-09-27T04:07:55.060Z,14.61
2023-09-27T04:12:42.376Z,14.51
2023-09-27T04:17:32.237Z,14.53
2023-09-27T04:22:20.214Z,14.64
2023-09-27T04:27:07.432Z,14.63
2023-09-27T04:31:54.762Z,14.45
2023-09-27T04:36:44.692Z,14.61
2023-09-27T04:41:31.937Z,14.39
2023-09-27T04:46:19.840Z,14.11
2023-09-27T04:51:07.272Z,14.14
2023-09-27T04:55:57.179Z,14.26
2023-09-27T05:00:44.472Z,14.41
2023-09-27T05:05:35.119Z,14.43
2023-09-27T05:10:22.419Z,14.45
2023-09-27T05:15:12.425Z,14.23
2023-09-27T05:19:59.654Z,14.19
2023-09-27T05:24:46.873Z,14.36
2023-09-27T05:29:34.028Z,14.24
2023-09-27T05:34:24.131Z,14.23
2023-09-27T05:39:11.590Z,13.80
2023-09-27T05:43:58.861Z,14.39
2023-09-27T05:48:46.434Z,13.99
2023-09-27T05:53:37.547Z,14.22
2023-09-27T05:58:24.788Z,14.25
2023-09-27T06:03:12.047Z,14.41
2023-09-27T06:08:03.224Z,14.29
2023-09-27T06:12:53.207Z,14.20
2023-09-27T06:17:43.578Z,14.52
2023-09-27T06:22:30.807Z,14.34
2023-09-27T06:27:18.218Z,14.53
2023-09-27T06:32:08.339Z,14.47
2023-09-27T06:36:55.632Z,14.50
2023-09-27T06:41:43.045Z,14.64
2023-09-27T06:46:42.964Z,14.65
2023-09-27T06:51:38.241Z,14.86
2023-09-27T06:56:25.421Z,14.95
2023-09-27T07:01:12.771Z,14.79
2023-09-27T07:06:00.437Z,15.12
2023-09-27T07:11:04.109Z,14.99
2023-09-27T07:15:53.475Z,15.02
2023-09-27T07:20:41.935Z,15.40
2023-09-27T07:25:29.170Z,15.51
2023-09-27T07:30:21.622Z,15.17
2023-09-27T07:35:09.657Z,15.21
2023-09-27T07:39:56.964Z,15.78
2023-09-27T07:44:44.261Z,15.74
2023-09-27T07:49:34.139Z,16.00
2023-09-27T07:54:21.336Z,16.19
2023-09-27T07:59:08.859Z,15.62
2023-09-27T08:03:56.339Z,16.29
2023-09-27T08:08:46.862Z,16.56
2023-09-27T08:13:34.315Z,16.58
2023-09-27T08:18:21.844Z,16.85
2023-09-27T08:23:09.493Z,16.70
2023-09-27T08:27:59.434Z,17.00
2023-09-27T08:32:46.892Z,17.21
2023-09-27T08:37:34.148Z,17.28
2023-09-27T08:42:22.029Z,17.36
2023-09-27T08:47:12.069Z,17.44
2023-09-27T08:51:59.393Z,17.47
2023-09-27T08:56:49.573Z,17.36
2023-09-27T09:01:40.100Z,17.39
2023-09-27T09:06:30.194Z,17.31
2023-09-27T09:11:17.532Z,17.60
2023-09-27T09:16:14.782Z,17.06
2023-09-27T09:21:02.235Z,17.69
2023-09-27T09:25:52.112Z,17.81
2023-09-27T09:30:40.899Z,17.90
2023-09-27T09:35:31.852Z,17.88
2023-09-27T09:40:19.054Z,17.90
2023-09-27T09:45:10.425Z,18.16
2023-09-27T09:49:57.647Z,18.34
2023-09-27T09:54:46.625Z,18.53
2023-09-27T09:59:38.100Z,18.88
2023-09-27T10:04:29.667Z,19.38
2023-09-27T10:09:18.455Z,19.67
2023-09-27T10:14:06.811Z,20.48
2023-09-27T10:18:55.723Z,20.24
2023-09-27T10:24:05.303Z,20.42
2023-09-27T10:29:14.203Z,20.36
2023-09-27T10:34:01.581Z,20.00
2023-09-27T10:39:04.399Z,20.42
2023-09-27T10:43:51.832Z,20.52
2023-09-27T10:48:39.314Z,21.02
2023-09-27T10:53:29.353Z,21.22
2023-09-27T10:58:19.998Z,21.27
2023-09-27T11:03:28.317Z,21.90
2023-09-27T11:08:25.934Z,21.75
2023-09-27T11:13:25.089Z,22.23
2023-09-27T11:18:13.415Z,22.70
2023-09-27T11:23:01.630Z,23.16
2023-09-27T11:27:48.861Z,23.43
2023-09-27T11:32:54.783Z,23.55
2023-09-27T11:37:42.254Z,23.52
2023-09-27T11:42:29.502Z,23.54
2023-09-27T11:47:16.879Z,23.51
2023-09-27T11:52:07.182Z,23.63
2023-09-27T11:56:54.675Z,23.60
2023-09-27T12:01:42.051Z,23.81
2023-09-27T12:06:29.646Z,23.86
2023-09-27T12:11:19.810Z,23.66
2023-09-27T12:16:07.180Z,23.67
2023-09-27T12:20:54.656Z,24.03
2023-09-27T12:25:41.906Z,24.02
2023-09-27T12:30:32.151Z,23.84
2023-09-27T12:35:19.322Z,23.74
2023-09-27T12:40:08.211Z,23.78
2023-09-27T12:44:55.387Z,23.73
2023-09-27T12:49:45.278Z,23.21
2023-09-27T12:54:32.448Z,23.47
2023-09-27T12:59:19.774Z,23.28
2023-09-27T13:04:07.395Z,23.15
2023-09-27T13:08:57.613Z,23.17
2023-09-27T13:13:44.777Z,23.38
2023-09-27T13:18:31.889Z,23.43
2023-09-27T13:23:19.419Z,23.64
2023-09-27T13:28:09.418Z,23.50
2023-09-27T13:32:56.653Z,23.35
2023-09-27T13:37:43.904Z,23.74
2023-09-27T13:42:31.058Z,23.78
2023-09-27T13:47:20.937Z,23.94
2023-09-27T13:52:08.076Z,23.95
2023-09-27T13:56:55.217Z,23.97
2023-09-27T14:01:42.389Z,23.81
2023-09-27T14:06:32.181Z,23.49
2023-09-27T14:11:19.598Z,23.21
2023-09-27T14:16:06.819Z,23.30
2023-09-27T14:20:54.288Z,23.45
2023-09-27T14:25:44.199Z,23.34
2023-09-27T14:30:31.474Z,23.40
2023-09-27T14:35:18.924Z,23.52
2023-09-27T14:40:07.645Z,23.43
2023-09-27T14:44:57.499Z,23.40
2023-09-27T14:49:44.770Z,23.40
2023-09-27T14:54:31.954Z,22.88
2023-09-27T14:59:19.156Z,23.24
2023-09-27T15:04:09.389Z,23.21
2023-09-27T15:08:56.626Z,23.21
2023-09-27T15:13:43.724Z,23.07
2023-09-27T15:18:31.147Z,23.07
2023-09-27T15:23:21.229Z,22.66
2023-09-27T15:28:08.578Z,23.04
2023-09-27T15:32:55.691Z,22.86
2023-09-27T15:37:52.003Z,22.82
2023-09-27T15:42:41.820Z,22.87
2023-09-27T15:47:29.089Z,22.89
2023-09-27T15:52:16.261Z,22.89
2023-09-27T15:57:03.450Z,22.82
2023-09-27T16:01:53.278Z,22.89
2023-09-27T16:06:40.542Z,22.70
2023-09-27T16:11:27.914Z,22.77
2023-09-27T16:16:15.056Z,22.62
2023-09-27T16:21:04.885Z,22.54
2023-09-27T16:25:52.050Z,22.37
2023-09-27T16:30:40.419Z,22.24
2023-09-27T16:35:28.275Z,22.11
2023-09-27T16:40:18.456Z,22.13
2023-09-27T16:45:06.656Z,21.87
2023-09-27T16:49:53.858Z,21.91
2023-09-27T16:54:41.245Z,21.81
2023-09-27T16:59:31.243Z,21.61
2023-09-27T17:04:18.517Z,21.41
2023-09-27T17:09:05.881Z,21.27
2023-09-27T17:13:53.390Z,20.99
2023-09-27T17:18:43.428Z,21.41
2023-09-27T17:23:30.617Z,21.32
2023-09-27T17:28:17.857Z,20.90
2023-09-27T17:33:05.803Z,21.16
2023-09-27T17:37:55.685Z,21.09
2023-09-27T17:42:42.879Z,20.70
2023-09-27T17:47:30.170Z,20.83
2023-09-27T17:52:17.328Z,20.93
2023-09-27T17:57:07.186Z,20.85
2023-09-27T18:01:54.406Z,20.74
2023-09-27T18:06:41.659Z,20.70
2023-09-27T18:11:28.751Z,20.78
2023-09-27T18:16:19.746Z,20.72
2023-09-27T18:21:06.892Z,20.57
2023-09-27T18:25:54.003Z,20.46
2023-09-27T18:30:41.138Z,20.46
2023-09-27T18:35:31.398Z,20.54
2023-09-27T18:40:19.567Z,20.15
2023-09-27T18:45:08.331Z,20.42
2023-09-27T18:49:55.557Z,20.17
2023-09-27T18:54:45.527Z,20.26
2023-09-27T18:59:32.805Z,20.37
2023-09-27T19:04:20.243Z,20.14
2023-09-27T19:09:07.569Z,20.05
2023-09-27T19:13:57.661Z,20.17
2023-09-27T19:18:45.106Z,19.99
2023-09-27T19:23:33.187Z,20.17
2023-09-27T19:28:21.882Z,20.02
2023-09-27T19:33:12.017Z,20.07
2023-09-27T19:37:59.386Z,20.03
2023-09-27T19:42:46.690Z,19.69
2023-09-27T19:47:36.165Z,20.12
2023-09-27T19:52:26.399Z,20.07
2023-09-27T19:57:13.737Z,20.07
2023-09-27T20:02:01.149Z,20.01
2023-09-27T20:06:48.532Z,20.18
2023-09-27T20:11:38.763Z,20.14
2023-09-27T20:16:26.195Z,19.63
2023-09-27T20:21:14.086Z,20.07
2023-09-27T20:26:02.136Z,20.23
2023-09-27T20:30:52.152Z,20.31
2023-09-27T20:35:39.604Z,20.01
2023-09-27T20:40:27.175Z,20.22
2023-09-27T20:45:14.696Z,20.30
2023-09-27T20:50:05.123Z,20.10
2023-09-27T20:54:52.557Z,20.30
2023-09-27T20:59:39.856Z,20.26
2023-09-27T21:04:27.368Z,20.26
2023-09-27T21:09:17.493Z,20.17
2023-09-27T21:14:05.305Z,20.17
2023-09-27T21:18:53.064Z,20.09
2023-09-27T21:23:40.366Z,20.09
2023-09-27T21:28:30.233Z,20.00
2023-09-27T21:33:17.493Z,19.74
2023-09-27T21:38:05.174Z,20.17
2023-09-27T21:42:52.611Z,20.14
2023-09-27T21:47:42.547Z,20.14
2023-09-27T21:52:29.900Z,19.76
2023-09-27T21:57:17.277Z,19.93
2023-09-27T22:02:04.509Z,19.92
2023-09-27T22:06:54.487Z,19.90
2023-09-27T22:11:41.829Z,19.97
2023-09-27T22:16:29.178Z,19.73
2023-09-27T22:21:24.049Z,19.70
2023-09-27T22:26:16.343Z,19.81
2023-09-27T22:31:04.482Z,19.62
2023-09-27T22:36:01.832Z,19.76
2023-09-27T22:40:49.197Z,19.77
2023-09-27T22:45:39.576Z,19.60
2023-09-27T22:50:27.020Z,19.72
2023-09-27T22:55:14.460Z,19.65
2023-09-27T23:00:01.790Z,19.80
2023-09-27T23:04:51.832Z,19.56
2023-09-27T23:09:39.095Z,19.50
2023-09-27T23:14:26.295Z,19.43
2023-09-27T23:19:14.401Z,19.56
2023-09-27T23:24:04.929Z,19.69
2023-09-27T23:28:52.207Z,19.68
2023-09-27T23:33:40.789Z,19.70
2023-09-27T23:38:28.027Z,19.55
2023-09-27T23:43:17.948Z,19.66
2023-09-27T23:48:08.261Z,19.54
2023-09-27T23:52:55.589Z,19.42
2023-09-27T23:57:43.538Z,19.52
